Time;durP1;ratioP1;P1;durP2;ratioP2;P2;SDS_P1;SDS_P2;PMS_P1;PMS_P2;Temp;Humidity;BMP_temperature;BMP_pressure;BME280_temperature;BME280_humidity;BME280_pressure;Samples;Min_cycle;Max_cycle;Signal;HPM_P1;HPM_P2
2022/01/30 00:01:40;;;;;;;8.30;1.02;;;;;;;;;;4921086;29;20044;-80
2022/01/30 00:04:05;;;;;;;13.35;1.40;;;;;;;;;;4905557;29;20028;-79
2022/01/30 00:06:30;;;;;;;11.68;1.65;;;;;;;;;;4923073;29;20043;-80
2022/01/30 00:08:56;;;;;;;7.13;1.25;;;;;;;;;;4923026;29;20036;-80
2022/01/30 00:11:25;;;;;;;11.52;1.30;;;;;;;;;;4922022;29;20032;-79
2022/01/30 00:13:51;;;;;;;6.88;1.00;;;;;;;;;;4923619;29;20026;-80
2022/01/30 00:16:19;;;;;;;6.75;0.80;;;;;;;;;;4931890;29;20043;-80
2022/01/30 00:23:45;;;;;;;9.57;1.17;;;;;;;;;;4913512;29;20040;-79
2022/01/30 00:26:13;;;;;;;3.80;0.60;;;;;;;;;;4904233;29;20021;-79
2022/01/30 00:28:40;;;;;;;4.93;0.52;;;;;;;;;;4903050;29;20021;-80
2022/01/30 00:31:05;;;;;;;5.00;0.77;;;;;;;;;;4901874;29;20029;-78
2022/01/30 00:33:30;;;;;;;6.28;1.00;;;;;;;;;;4900857;29;20119;-79
2022/01/30 00:35:56;;;;;;;6.78;1.02;;;;;;;;;;4901288;29;20124;-79
2022/01/30 00:38:22;;;;;;;10.25;1.50;;;;;;;;;;4885191;29;20028;-79
2022/01/30 00:40:49;;;;;;;13.27;1.20;;;;;;;;;;4903298;29;20084;-79
2022/01/30 00:43:14;;;;;;;6.80;0.90;;;;;;;;;;4902533;29;20057;-79
2022/01/30 00:45:39;;;;;;;10.35;1.02;;;;;;;;;;4903431;29;20028;-78
2022/01/30 00:48:05;;;;;;;4.90;1.10;;;;;;;;;;4900781;29;20020;-79
2022/01/30 00:50:30;;;;;;;2.75;0.88;;;;;;;;;;4902744;29;20020;-78
2022/01/30 00:52:55;;;;;;;12.13;1.50;;;;;;;;;;4903117;29;20088;-79
2022/01/30 00:55:21;;;;;;;6.28;1.08;;;;;;;;;;4901289;29;20421;-79
2022/01/30 00:57:46;;;;;;;4.05;0.98;;;;;;;;;;4902396;29;20072;-79
2022/01/30 01:00:14;;;;;;;8.93;1.20;;;;;;;;;;4902356;29;20024;-80
2022/01/30 01:02:39;;;;;;;5.53;0.90;;;;;;;;;;4902090;29;20355;-79
2022/01/30 01:05:06;;;;;;;11.95;1.40;;;;;;;;;;4902368;29;20080;-79
2022/01/30 01:07:32;;;;;;;11.75;2.03;;;;;;;;;;4901388;29;20017;-80
2022/01/30 01:10:06;;;;;;;14.25;1.50;;;;;;;;;;4902386;29;20095;-79
2022/01/30 01:23:34;;;;;;;6.13;1.15;;;;;;;;;;4903188;29;20052;-80
2022/01/30 01:26:00;;;;;;;11.30;1.75;;;;;;;;;;4902544;29;20025;-79
2022/01/30 01:28:25;;;;;;;11.48;1.55;;;;;;;;;;4901718;29;20031;-80
2022/01/30 01:30:51;;;;;;;7.60;1.45;;;;;;;;;;4901756;29;20032;-80
2022/01/30 01:33:16;;;;;;;8.82;1.58;;;;;;;;;;4898781;29;20032;-80
2022/01/30 01:35:42;;;;;;;11.35;1.35;;;;;;;;;;4899824;29;20108;-80
2022/01/30 01:38:12;;;;;;;15.93;2.00;;;;;;;;;;4899193;29;20443;-79
2022/01/30 01:40:38;;;;;;;12.85;2.22;;;;;;;;;;4898807;29;20025;-80
2022/01/30 01:43:04;;;;;;;9.25;1.80;;;;;;;;;;4898534;29;20027;-80
2022/01/30 01:45:34;;;;;;;8.32;1.80;;;;;;;;;;4898615;29;20017;-79
2022/01/30 01:48:03;;;;;;;11.25;1.67;;;;;;;;;;4899028;29;20059;-78
2022/01/30 01:50:42;;;;;;;8.20;1.63;;;;;;;;;;4900180;29;20025;-79
2022/01/30 01:53:09;;;;;;;16.23;1.90;;;;;;;;;;4899780;29;20032;-80
2022/01/30 01:55:34;;;;;;;13.60;1.85;;;;;;;;;;4899876;29;20028;-79
2022/01/30 01:57:59;;;;;;;11.40;2.25;;;;;;;;;;4913009;29;20028;-79
2022/01/30 02:00:25;;;;;;;10.40;1.70;;;;;;;;;;4920044;29;20016;-79
2022/01/30 02:02:50;;;;;;;11.70;1.92;;;;;;;;;;4910297;29;20517;-79
2022/01/30 02:05:15;;;;;;;11.05;1.52;;;;;;;;;;4900172;29;20059;-78
2022/01/30 02:10:27;;;;;;;15.02;2.15;;;;;;;;;;4898954;29;20475;-79
2022/01/30 02:12:55;;;;;;;9.65;1.63;;;;;;;;;;4898074;29;20422;-79
2022/01/30 02:26:00;;;;;;;11.38;1.45;;;;;;;;;;4901111;29;20031;-80
2022/01/30 02:28:28;;;;;;;5.67;1.00;;;;;;;;;;4902324;29;20020;-80
2022/01/30 02:31:03;;;;;;;9.75;1.45;;;;;;;;;;4901244;29;20346;-79
2022/01/30 02:33:28;;;;;;;12.60;1.77;;;;;;;;;;4899209;29;20028;-80
2022/01/30 02:35:54;;;;;;;8.32;1.55;;;;;;;;;;4899332;29;20390;-79
2022/01/30 02:38:23;;;;;;;16.30;1.80;;;;;;;;;;4913505;29;20028;-79
2022/01/30 02:40:50;;;;;;;6.22;1.30;;;;;;;;;;4899534;29;20076;-79
2022/01/30 02:43:20;;;;;;;9.70;2.15;;;;;;;;;;4900140;29;20519;-79
2022/01/30 02:45:57;;;;;;;5.43;1.17;;;;;;;;;;4900169;29;20021;-79
2022/01/30 02:48:31;;;;;;;9.43;1.95;;;;;;;;;;4899448;29;20562;-79
2022/01/30 02:51:08;;;;;;;10.30;1.52;;;;;;;;;;4899333;29;20025;-79
2022/01/30 02:53:39;;;;;;;8.15;1.85;;;;;;;;;;4899582;29;20043;-79
2022/01/30 02:56:04;;;;;;;7.40;1.75;;;;;;;;;;4898962;29;20061;-79
2022/01/30 02:58:29;;;;;;;12.02;1.88;;;;;;;;;;4898961;29;20021;-78
2022/01/30 03:00:55;;;;;;;9.95;1.85;;;;;;;;;;4901424;29;20034;-79
2022/01/30 03:03:20;;;;;;;8.02;1.58;;;;;;;;;;4903307;29;20023;-78
2022/01/30 03:05:45;;;;;;;13.07;1.52;;;;;;;;;;4902443;29;20025;-79
2022/01/30 03:08:10;;;;;;;6.15;1.00;;;;;;;;;;4903186;29;20024;-79
2022/01/30 03:10:35;;;;;;;9.90;1.52;;;;;;;;;;4902475;29;20039;-78
2022/01/30 03:13:01;;;;;;;13.23;2.67;;;;;;;;;;4904415;29;20036;-80
2022/01/30 03:15:26;;;;;;;6.68;1.10;;;;;;;;;;4918768;29;20092;-79
2022/01/30 03:17:51;;;;;;;12.55;1.50;;;;;;;;;;4903073;29;20033;-78
2022/01/30 03:20:16;;;;;;;10.70;1.40;;;;;;;;;;4902048;29;20020;-80
2022/01/30 03:22:41;;;;;;;10.52;1.30;;;;;;;;;;4904043;29;20044;-81
2022/01/30 03:25:07;;;;;;;9.80;2.28;;;;;;;;;;4904048;29;20416;-79
2022/01/30 03:27:32;;;;;;;8.55;1.48;;;;;;;;;;4905385;29;20024;-79
2022/01/30 03:30:06;;;;;;;7.47;1.23;;;;;;;;;;4904897;29;20566;-79
2022/01/30 03:32:32;;;;;;;8.65;1.52;;;;;;;;;;4921749;29;20053;-80
2022/01/30 03:34:57;;;;;;;7.07;1.45;;;;;;;;;;4906525;29;20021;-80
2022/01/30 03:37:22;;;;;;;10.68;1.25;;;;;;;;;;4903827;29;20123;-79
2022/01/30 03:39:47;;;;;;;10.77;1.98;;;;;;;;;;4903385;29;20471;-79
2022/01/30 03:42:13;;;;;;;8.57;1.50;;;;;;;;;;4903697;29;20520;-80
2022/01/30 03:44:38;;;;;;;15.05;1.77;;;;;;;;;;4908415;29;20020;-79
2022/01/30 03:47:03;;;;;;;10.93;2.20;;;;;;;;;;4912998;29;20100;-79
2022/01/30 03:49:29;;;;;;;10.90;1.60;;;;;;;;;;4902619;29;20025;-79
2022/01/30 03:51:54;;;;;;;7.45;2.08;;;;;;;;;;4903917;29;20023;-79
2022/01/30 03:54:19;;;;;;;10.63;1.42;;;;;;;;;;4903146;29;20028;-79
2022/01/30 03:56:44;;;;;;;10.27;1.90;;;;;;;;;;4903471;29;20025;-79
2022/01/30 03:59:10;;;;;;;10.40;2.08;;;;;;;;;;4915758;29;20040;-79
2022/01/30 04:01:35;;;;;;;11.45;1.42;;;;;;;;;;4900050;29;20066;-80
2022/01/30 04:04:00;;;;;;;7.43;1.33;;;;;;;;;;4901648;29;20051;-78
2022/01/30 04:06:25;;;;;;;11.50;1.20;;;;;;;;;;4901159;29;20112;-78
2022/01/30 04:08:51;;;;;;;15.50;1.58;;;;;;;;;;4915306;29;20035;-79
2022/01/30 04:11:16;;;;;;;7.45;1.48;;;;;;;;;;4897727;29;20025;-79
2022/01/30 04:13:41;;;;;;;9.82;1.80;;;;;;;;;;4903016;29;20048;-79
2022/01/30 04:16:07;;;;;;;6.30;1.10;;;;;;;;;;4901742;29;20509;-79
2022/01/30 04:18:32;;;;;;;11.50;1.85;;;;;;;;;;4901783;29;20050;-78
2022/01/30 04:20:57;;;;;;;9.23;1.80;;;;;;;;;;4919538;29;20024;-78
2022/01/30 04:23:22;;;;;;;16.20;1.60;;;;;;;;;;4904188;29;20035;-79
2022/01/30 04:25:48;;;;;;;8.85;1.85;;;;;;;;;;4920713;29;20111;-78
2022/01/30 04:28:14;;;;;;;15.27;1.73;;;;;;;;;;4920092;29;20404;-79
2022/01/30 04:30:39;;;;;;;9.95;1.70;;;;;;;;;;4922841;29;20024;-78
2022/01/30 04:33:04;;;;;;;10.80;2.03;;;;;;;;;;4922710;29;20111;-79
2022/01/30 04:35:30;;;;;;;8.20;1.63;;;;;;;;;;4924002;29;20027;-79
2022/01/30 04:59:43;;;;;;;7.97;1.40;;;;;;;;;;4924709;29;20035;-77
2022/01/30 05:09:41;;;;;;;11.43;1.75;;;;;;;;;;4920794;29;20043;-78
2022/01/30 05:12:07;;;;;;;7.05;1.15;;;;;;;;;;4916330;29;20038;-79
2022/01/30 05:14:35;;;;;;;6.65;1.33;;;;;;;;;;4918002;29;20032;-78
2022/01/30 05:17:00;;;;;;;7.40;1.52;;;;;;;;;;4917810;29;20494;-78
2022/01/30 05:19:26;;;;;;;6.93;1.52;;;;;;;;;;4917812;29;20058;-79
2022/01/30 05:21:51;;;;;;;6.70;1.30;;;;;;;;;;4916496;29;20020;-78
2022/01/30 05:24:17;;;;;;;10.25;1.55;;;;;;;;;;4917201;29;20367;-78
2022/01/30 05:26:43;;;;;;;9.32;1.23;;;;;;;;;;4920157;29;20504;-78
2022/01/30 05:29:09;;;;;;;12.90;2.38;;;;;;;;;;4921390;29;20024;-78
2022/01/30 05:31:34;;;;;;;11.30;2.00;;;;;;;;;;4921295;29;20051;-78
2022/01/30 05:33:59;;;;;;;14.02;1.60;;;;;;;;;;4904177;29;20031;-77
2022/01/30 05:36:25;;;;;;;13.13;2.03;;;;;;;;;;4921479;29;20027;-78
2022/01/30 05:38:50;;;;;;;11.00;1.48;;;;;;;;;;4920161;29;20557;-78
2022/01/30 05:41:16;;;;;;;11.05;1.70;;;;;;;;;;4919426;29;20025;-78
2022/01/30 05:43:42;;;;;;;14.00;1.88;;;;;;;;;;4918904;29;20021;-79
2022/01/30 05:46:14;;;;;;;6.43;1.50;;;;;;;;;;4920484;29;20084;-79
2022/01/30 05:48:40;;;;;;;15.38;1.92;;;;;;;;;;4920803;29;20020;-79
2022/01/30 05:51:05;;;;;;;10.13;1.60;;;;;;;;;;4904555;29;20500;-79
2022/01/30 05:53:30;;;;;;;9.52;1.60;;;;;;;;;;4920148;29;20118;-78
2022/01/30 05:55:55;;;;;;;15.05;2.05;;;;;;;;;;4920906;29;20028;-78
2022/01/30 05:58:21;;;;;;;9.95;1.30;;;;;;;;;;4920033;29;20126;-77
2022/01/30 06:00:46;;;;;;;13.85;1.58;;;;;;;;;;4919846;29;20473;-79
2022/01/30 06:03:11;;;;;;;14.18;1.85;;;;;;;;;;4920087;29;20020;-79
2022/01/30 06:05:38;;;;;;;7.78;1.50;;;;;;;;;;4919689;29;20016;-77
2022/01/30 06:08:12;;;;;;;7.40;1.40;;;;;;;;;;4919889;29;20035;-77
2022/01/30 06:10:37;;;;;;;8.30;1.40;;;;;;;;;;4919716;29;20024;-80
2022/01/30 06:13:02;;;;;;;6.65;1.35;;;;;;;;;;4919141;29;20028;-76
2022/01/30 06:15:27;;;;;;;7.72;1.67;;;;;;;;;;4919793;29;20474;-78
2022/01/30 06:17:56;;;;;;;17.33;1.75;;;;;;;;;;4919748;29;20095;-78
2022/01/30 06:20:21;;;;;;;8.80;1.75;;;;;;;;;;4909397;29;20020;-77
2022/01/30 06:22:46;;;;;;;7.28;2.35;;;;;;;;;;4902692;29;20032;-77
2022/01/30 06:25:11;;;;;;;15.57;2.25;;;;;;;;;;4902450;29;20020;-78
2022/01/30 06:27:37;;;;;;;11.45;2.65;;;;;;;;;;4901698;29;20025;-78
2022/01/30 06:30:03;;;;;;;13.55;1.65;;;;;;;;;;4902470;29;20029;-78
2022/01/30 06:32:28;;;;;;;18.05;2.10;;;;;;;;;;4900383;29;20029;-78
2022/01/30 06:34:54;;;;;;;8.68;1.60;;;;;;;;;;4899419;29;20085;-79
2022/01/30 06:37:19;;;;;;;8.18;1.35;;;;;;;;;;4902253;29;20025;-78
2022/01/30 06:39:44;;;;;;;12.65;1.88;;;;;;;;;;4903424;29;20095;-78
2022/01/30 06:42:11;;;;;;;10.10;1.75;;;;;;;;;;4902703;29;20060;-77
2022/01/30 06:44:37;;;;;;;12.40;1.45;;;;;;;;;;4902587;29;20050;-78
2022/01/30 06:47:03;;;;;;;12.77;2.33;;;;;;;;;;4903369;29;20020;-79
2022/01/30 06:49:28;;;;;;;10.50;1.73;;;;;;;;;;4902523;29;20040;-78
2022/01/30 06:51:53;;;;;;;13.77;2.53;;;;;;;;;;4901993;29;20695;-78
2022/01/30 06:54:18;;;;;;;18.80;2.20;;;;;;;;;;4902200;29;20033;-79
2022/01/30 06:56:43;;;;;;;8.07;2.35;;;;;;;;;;4901528;29;20040;-78
2022/01/30 06:59:09;;;;;;;11.27;2.72;;;;;;;;;;4899828;29;20032;-77
2022/01/30 07:01:34;;;;;;;17.00;3.13;;;;;;;;;;4901125;29;20017;-78
2022/01/30 07:03:59;;;;;;;14.50;2.00;;;;;;;;;;4900891;29;20017;-79
2022/01/30 07:06:24;;;;;;;9.07;1.88;;;;;;;;;;4900533;29;20035;-77
2022/01/30 07:08:49;;;;;;;22.70;2.70;;;;;;;;;;4900740;29;20040;-78
2022/01/30 07:11:15;;;;;;;9.45;2.53;;;;;;;;;;4900848;29;20027;-79
2022/01/30 07:13:40;;;;;;;14.50;2.00;;;;;;;;;;4901205;29;20017;-77
2022/01/30 07:16:05;;;;;;;14.13;2.08;;;;;;;;;;4901144;29;20280;-79
2022/01/30 07:18:31;;;;;;;15.00;2.60;;;;;;;;;;4914152;29;20090;-78
2022/01/30 07:20:56;;;;;;;19.48;2.80;;;;;;;;;;4917201;29;20029;-78
2022/01/30 07:23:21;;;;;;;13.15;2.13;;;;;;;;;;4923016;29;20039;-78
2022/01/30 07:25:46;;;;;;;17.88;2.63;;;;;;;;;;4919273;29;20463;-79
2022/01/30 07:28:11;;;;;;;15.88;2.53;;;;;;;;;;4904505;29;20498;-78
2022/01/30 07:30:37;;;;;;;14.23;2.58;;;;;;;;;;4902269;29;20474;-78
2022/01/30 07:33:03;;;;;;;15.95;2.78;;;;;;;;;;4885229;29;20079;-79
2022/01/30 07:35:28;;;;;;;15.55;2.50;;;;;;;;;;4901610;29;20024;-78
2022/01/30 07:37:53;;;;;;;15.00;2.28;;;;;;;;;;4902196;29;20368;-79
2022/01/30 07:40:19;;;;;;;16.58;2.45;;;;;;;;;;4902174;29;20025;-79
2022/01/30 07:42:44;;;;;;;17.63;2.63;;;;;;;;;;4901664;29;20419;-79
2022/01/30 07:45:10;;;;;;;10.27;1.90;;;;;;;;;;4899746;29;20021;-79
2022/01/30 07:47:35;;;;;;;17.92;3.35;;;;;;;;;;4901605;29;20025;-79
2022/01/30 07:50:00;;;;;;;17.60;2.42;;;;;;;;;;4901264;29;20497;-79
2022/01/30 07:52:26;;;;;;;17.83;3.20;;;;;;;;;;4902255;29;20088;-79
2022/01/30 07:54:51;;;;;;;14.43;2.92;;;;;;;;;;4902429;29;20119;-79
2022/01/30 07:57:17;;;;;;;17.50;2.70;;;;;;;;;;4904412;29;20044;-79
2022/01/30 07:59:42;;;;;;;18.23;2.65;;;;;;;;;;4904104;29;20021;-79
2022/01/30 08:02:08;;;;;;;16.77;3.05;;;;;;;;;;4901635;29;20036;-78
2022/01/30 08:04:33;;;;;;;18.60;2.95;;;;;;;;;;4903877;29;20056;-77
2022/01/30 08:06:59;;;;;;;19.40;2.42;;;;;;;;;;4907986;29;20016;-77
2022/01/30 08:09:24;;;;;;;18.13;2.60;;;;;;;;;;4917339;29;20092;-79
2022/01/30 08:11:50;;;;;;;19.85;2.47;;;;;;;;;;4920121;29;20029;-77
2022/01/30 08:14:15;;;;;;;18.70;2.65;;;;;;;;;;4918939;29;20031;-79
2022/01/30 08:16:40;;;;;;;17.65;2.55;;;;;;;;;;4917938;29;20029;-77
2022/01/30 08:19:05;;;;;;;16.90;3.00;;;;;;;;;;4916684;29;20056;-77
2022/01/30 08:21:31;;;;;;;20.38;3.88;;;;;;;;;;4913343;29;20020;-79
2022/01/30 08:23:56;;;;;;;16.95;2.85;;;;;;;;;;4912719;29;20028;-78
2022/01/30 08:26:21;;;;;;;16.70;3.13;;;;;;;;;;4911305;29;20043;-78
2022/01/30 08:28:46;;;;;;;20.73;2.42;;;;;;;;;;4908935;29;20031;-77
2022/01/30 08:31:12;;;;;;;18.20;2.40;;;;;;;;;;4915549;29;20028;-77
2022/01/30 08:33:37;;;;;;;18.70;2.58;;;;;;;;;;4914280;29;20057;-78
2022/01/30 08:36:02;;;;;;;17.58;3.42;;;;;;;;;;4914330;29;20025;-77
2022/01/30 08:38:28;;;;;;;17.85;2.50;;;;;;;;;;4910847;29;20025;-79
2022/01/30 08:40:53;;;;;;;21.58;2.58;;;;;;;;;;4907413;29;20025;-78
2022/01/30 08:43:21;;;;;;;18.33;2.65;;;;;;;;;;4921041;29;20054;-78
2022/01/30 08:45:47;;;;;;;20.15;2.60;;;;;;;;;;4935179;29;20009;-79
2022/01/30 08:48:12;;;;;;;23.33;2.92;;;;;;;;;;4912502;29;20025;-77
2022/01/30 08:50:38;;;;;;;22.67;3.28;;;;;;;;;;4918031;29;20029;-77
2022/01/30 08:53:04;;;;;;;11.40;2.35;;;;;;;;;;4919245;29;20059;-79
2022/01/30 08:55:29;;;;;;;16.00;2.70;;;;;;;;;;4920191;29;20028;-77
2022/01/30 08:57:55;;;;;;;19.38;3.30;;;;;;;;;;4909210;29;20179;-79
2022/01/30 09:00:20;;;;;;;24.95;3.05;;;;;;;;;;4907865;29;20474;-78
2022/01/30 09:02:47;;;;;;;16.02;3.20;;;;;;;;;;4902792;29;20099;-78
2022/01/30 09:05:12;;;;;;;17.70;2.67;;;;;;;;;;4915092;29;20471;-78
2022/01/30 09:07:38;;;;;;;16.58;3.08;;;;;;;;;;4914634;29;20111;-78
2022/01/30 09:10:04;;;;;;;29.67;3.58;;;;;;;;;;4915816;29;20036;-78
2022/01/30 09:12:29;;;;;;;18.27;2.60;;;;;;;;;;4912918;29;20024;-78
2022/01/30 09:14:55;;;;;;;15.65;2.60;;;;;;;;;;4898577;29;20555;-77
2022/01/30 09:17:22;;;;;;;18.83;2.17;;;;;;;;;;4913173;29;20036;-77
2022/01/30 09:19:47;;;;;;;21.10;3.10;;;;;;;;;;4898753;29;20166;-78
2022/01/30 09:22:13;;;;;;;25.08;2.92;;;;;;;;;;4900055;29;20434;-77
2022/01/30 09:24:39;;;;;;;25.50;3.60;;;;;;;;;;4901002;29;20503;-77
2022/01/30 09:27:05;;;;;;;14.70;2.47;;;;;;;;;;4898660;29;20028;-78
2022/01/30 09:29:30;;;;;;;19.13;3.50;;;;;;;;;;4898399;29;20025;-77
2022/01/30 09:31:56;;;;;;;14.18;2.72;;;;;;;;;;4902301;29;20032;-77
2022/01/30 09:34:21;;;;;;;18.58;3.28;;;;;;;;;;4916275;29;20028;-77
2022/01/30 09:36:47;;;;;;;25.98;2.88;;;;;;;;;;4900134;29;20562;-78
2022/01/30 09:39:12;;;;;;;14.63;2.60;;;;;;;;;;4899744;29;20032;-76
2022/01/30 09:41:37;;;;;;;21.38;3.15;;;;;;;;;;4897964;29;20076;-77
2022/01/30 09:44:03;;;;;;;18.23;2.67;;;;;;;;;;4899388;29;20024;-76
2022/01/30 09:46:29;;;;;;;19.27;2.53;;;;;;;;;;4900527;29;20031;-77
2022/01/30 09:48:54;;;;;;;19.05;3.50;;;;;;;;;;4900778;29;20060;-77
2022/01/30 09:51:19;;;;;;;13.75;2.78;;;;;;;;;;4900782;29;20393;-77
2022/01/30 09:53:44;;;;;;;16.55;2.92;;;;;;;;;;4901094;29;20231;-76
2022/01/30 09:56:10;;;;;;;30.08;3.90;;;;;;;;;;4896806;29;20032;-77
2022/01/30 09:58:35;;;;;;;20.48;2.72;;;;;;;;;;4918078;29;20025;-77
2022/01/30 10:01:01;;;;;;;19.15;2.65;;;;;;;;;;4900272;29;20024;-76
2022/01/30 10:03:29;;;;;;;20.10;3.17;;;;;;;;;;4899040;29;20021;-76
2022/01/30 10:06:12;;;;;;;19.50;3.45;;;;;;;;;;4898278;29;20024;-77
2022/01/30 10:08:46;;;;;;;20.60;4.28;;;;;;;;;;4900735;29;20064;-77
2022/01/30 10:11:33;;;;;;;16.40;2.90;;;;;;;;;;4902128;29;20479;-78
2022/01/30 10:14:06;;;;;;;30.70;3.95;;;;;;;;;;4899551;29;20051;-77
2022/01/30 10:16:42;;;;;;;21.08;3.55;;;;;;;;;;4898631;29;20064;-78
2022/01/30 10:19:17;;;;;;;15.52;2.75;;;;;;;;;;4898305;29;20084;-76
2022/01/30 10:21:43;;;;;;;14.68;3.10;;;;;;;;;;4898721;29;20068;-77
2022/01/30 10:24:18;;;;;;;22.83;3.03;;;;;;;;;;4897372;29;20498;-78
2022/01/30 10:26:43;;;;;;;20.30;3.17;;;;;;;;;;4900535;29;20020;-77
2022/01/30 10:29:21;;;;;;;19.23;3.35;;;;;;;;;;4905778;29;20048;-78
2022/01/30 10:31:56;;;;;;;19.77;2.65;;;;;;;;;;4908298;29;20017;-78
2022/01/30 10:34:21;;;;;;;22.80;3.38;;;;;;;;;;4910860;29;20080;-77
2022/01/30 10:36:50;;;;;;;28.02;3.83;;;;;;;;;;4918656;29;20027;-77
2022/01/30 10:39:18;;;;;;;27.00;2.72;;;;;;;;;;4920652;29;20025;-77
2022/01/30 10:41:52;;;;;;;15.63;2.38;;;;;;;;;;4917341;29;20013;-76
2022/01/30 10:44:19;;;;;;;15.93;2.95;;;;;;;;;;4903988;29;20116;-77
2022/01/30 10:46:45;;;;;;;18.40;3.00;;;;;;;;;;4904584;29;20165;-76
2022/01/30 10:49:11;;;;;;;13.60;2.58;;;;;;;;;;4901535;29;20025;-77
2022/01/30 10:51:37;;;;;;;15.73;2.88;;;;;;;;;;4898983;29;20055;-78
2022/01/30 10:54:08;;;;;;;23.60;3.83;;;;;;;;;;4902965;29;20017;-77
2022/01/30 10:56:34;;;;;;;18.13;3.20;;;;;;;;;;4911865;29;20540;-77
2022/01/30 10:59:17;;;;;;;15.10;3.75;;;;;;;;;;4899097;29;20061;-76
2022/01/30 11:01:44;;;;;;;24.67;3.63;;;;;;;;;;4905860;29;20040;-76
2022/01/30 11:04:28;;;;;;;24.27;2.83;;;;;;;;;;4901537;29;20016;-77
2022/01/30 11:06:55;;;;;;;19.48;2.90;;;;;;;;;;4898801;29;20028;-79
2022/01/30 11:09:25;;;;;;;18.02;3.05;;;;;;;;;;4899761;29;20032;-77
2022/01/30 11:11:56;;;;;;;20.17;3.55;;;;;;;;;;4901999;29;20036;-77
2022/01/30 11:14:34;;;;;;;12.23;2.40;;;;;;;;;;4898668;29;20040;-78
2022/01/30 11:17:03;;;;;;;27.25;4.43;;;;;;;;;;4901182;29;20048;-77
2022/01/30 11:19:28;;;;;;;;;;;;;;;;;;4898836;29;20052;-78
2022/01/30 11:21:55;;;;;;;19.77;3.38;;;;;;;;;;4903626;29;19911;-75
2022/01/30 11:24:23;;;;;;;28.67;4.18;;;;;;;;;;4901818;29;20666;-77
2022/01/30 11:26:48;;;;;;;21.00;2.78;;;;;;;;;;4901755;29;20028;-77
2022/01/30 11:29:14;;;;;;;17.60;3.05;;;;;;;;;;4900604;29;20035;-78
2022/01/30 11:31:40;;;;;;;12.55;2.63;;;;;;;;;;4902548;29;20020;-78
2022/01/30 11:34:05;;;;;;;21.00;3.97;;;;;;;;;;4905198;29;20035;-78
2022/01/30 11:36:32;;;;;;;22.83;3.85;;;;;;;;;;4905185;29;20072;-76
2022/01/30 11:38:57;;;;;;;20.35;2.65;;;;;;;;;;4888087;29;20085;-76
2022/01/30 11:41:23;;;;;;;25.52;4.60;;;;;;;;;;4905690;29;20048;-77
2022/01/30 11:44:06;;;;;;;24.23;3.80;;;;;;;;;;4907058;29;20394;-77
2022/01/30 11:46:32;;;;;;;21.63;3.00;;;;;;;;;;4905242;29;20023;-78
2022/01/30 11:49:11;;;;;;;21.83;3.33;;;;;;;;;;4903530;29;20115;-78
2022/01/30 11:51:49;;;;;;;16.40;2.47;;;;;;;;;;4904911;29;20029;-77
2022/01/30 11:54:33;;;;;;;18.58;3.75;;;;;;;;;;4904266;29;20025;-76
2022/01/30 11:56:59;;;;;;;25.48;3.85;;;;;;;;;;4900240;29;20036;-77
2022/01/30 11:59:39;;;;;;;26.98;4.00;;;;;;;;;;4899652;29;20025;-80
2022/01/30 12:02:23;;;;;;;27.90;4.57;;;;;;;;;;4900981;29;20039;-78
2022/01/30 12:04:56;;;;;;;22.08;3.53;;;;;;;;;;4903385;29;20072;-77
2022/01/30 12:07:35;;;;;;;29.10;3.70;;;;;;;;;;4902732;29;20020;-77
2022/01/30 12:10:00;;;;;;;;;;;;;;;;;;4903350;29;20100;-78
2022/01/30 12:12:45;;;;;;;23.05;3.15;;;;;;;;;;4902880;29;19907;-78
2022/01/30 12:15:30;;;;;;;24.45;3.45;;;;;;;;;;4902466;29;20081;-77
2022/01/30 12:17:55;;;;;;;18.98;3.47;;;;;;;;;;4901722;29;20028;-77
2022/01/30 12:20:22;;;;;;;24.25;3.67;;;;;;;;;;4916775;29;20032;-78
2022/01/30 12:22:48;;;;;;;21.40;3.45;;;;;;;;;;4903602;29;20047;-77
2022/01/30 12:25:36;;;;;;;17.33;3.10;;;;;;;;;;4908573;29;20029;-77
2022/01/30 12:28:02;;;;;;;;;;;;;;;;;;4911888;29;20036;-77
2022/01/30 12:30:30;;;;;;;22.38;2.78;;;;;;;;;;4906349;29;19962;-76
2022/01/30 12:32:55;;;;;;;26.08;3.70;;;;;;;;;;4899623;29;20052;-77
2022/01/30 12:35:21;;;;;;;25.90;4.80;;;;;;;;;;4900497;29;20040;-76
2022/01/30 12:37:46;;;;;;;23.15;3.80;;;;;;;;;;4901105;29;20024;-78
2022/01/30 12:40:11;;;;;;;21.90;3.55;;;;;;;;;;4901984;29;20033;-78
2022/01/30 12:42:37;;;;;;;25.95;3.58;;;;;;;;;;4901669;29;20474;-77
2022/01/30 12:45:04;;;;;;;21.67;3.92;;;;;;;;;;4899171;29;20032;-77
2022/01/30 12:47:29;;;;;;;21.00;3.78;;;;;;;;;;4898254;29;20056;-79
2022/01/30 12:49:58;;;;;;;24.90;4.50;;;;;;;;;;4903329;29;20497;-78
2022/01/30 12:52:35;;;;;;;19.15;3.28;;;;;;;;;;4886191;29;20036;-78
2022/01/30 12:55:07;;;;;;;23.63;4.88;;;;;;;;;;4901423;29;20040;-78
2022/01/30 12:57:32;;;;;;;26.38;3.33;;;;;;;;;;4899732;29;20036;-77
2022/01/30 12:59:58;;;;;;;18.92;2.75;;;;;;;;;;4898114;29;20032;-78
2022/01/30 13:02:24;;;;;;;25.60;4.15;;;;;;;;;;4899238;29;20096;-78
2022/01/30 13:04:58;;;;;;;32.40;4.32;;;;;;;;;;4898910;29;20028;-77
2022/01/30 13:07:24;;;;;;;27.08;4.30;;;;;;;;;;4898695;29;20020;-78
2022/01/30 13:10:01;;;;;;;24.10;3.55;;;;;;;;;;4898848;29;20380;-78
2022/01/30 13:12:29;;;;;;;25.58;3.67;;;;;;;;;;4898608;29;20028;-77
2022/01/30 13:14:55;;;;;;;26.60;4.25;;;;;;;;;;4908027;29;20051;-78
2022/01/30 13:17:26;;;;;;;25.92;2.97;;;;;;;;;;4883994;29;20096;-77
2022/01/30 13:19:52;;;;;;;25.40;4.25;;;;;;;;;;4907129;29;20021;-77
2022/01/30 13:22:29;;;;;;;24.35;3.92;;;;;;;;;;4911052;29;20020;-78
2022/01/30 13:24:55;;;;;;;23.35;4.43;;;;;;;;;;4913913;29;20024;-76
2022/01/30 13:27:20;;;;;;;29.35;4.55;;;;;;;;;;4920586;29;20072;-78
2022/01/30 13:29:45;;;;;;;24.08;3.65;;;;;;;;;;4913739;29;20038;-77
2022/01/30 13:32:11;;;;;;;25.25;4.30;;;;;;;;;;4904399;29;20171;-77
2022/01/30 13:34:37;;;;;;;19.80;3.67;;;;;;;;;;4900134;29;20167;-78
2022/01/30 13:37:02;;;;;;;26.85;4.43;;;;;;;;;;4901765;29;20379;-77
2022/01/30 13:39:37;;;;;;;17.48;3.50;;;;;;;;;;4902856;29;20025;-77
2022/01/30 13:42:26;;;;;;;36.85;4.05;;;;;;;;;;4900892;29;20023;-78
2022/01/30 13:45:03;;;;;;;24.05;3.78;;;;;;;;;;4900135;29;20478;-78
2022/01/30 13:47:28;;;;;;;27.30;3.92;;;;;;;;;;4899906;29;20071;-78
2022/01/30 13:49:54;;;;;;;32.38;4.82;;;;;;;;;;4900213;29;20061;-78
2022/01/30 13:52:19;;;;;;;23.88;3.88;;;;;;;;;;4899308;29;20028;-78
2022/01/30 13:55:00;;;;;;;28.83;5.22;;;;;;;;;;4900134;29;20052;-79
2022/01/30 13:57:30;;;;;;;24.33;4.22;;;;;;;;;;4898958;29;20028;-78
2022/01/30 14:00:17;;;;;;;23.45;3.22;;;;;;;;;;4898889;29;20120;-78
2022/01/30 14:02:52;;;;;;;30.05;5.65;;;;;;;;;;4905528;29;20068;-78
2022/01/30 14:05:25;;;;;;;24.25;3.83;;;;;;;;;;4902994;29;20021;-77
2022/01/30 14:07:55;;;;;;;24.50;4.65;;;;;;;;;;4903065;29;20108;-76
2022/01/30 14:10:27;;;;;;;23.05;3.85;;;;;;;;;;4899091;29;20088;-76
2022/01/30 14:12:54;;;;;;;24.73;3.63;;;;;;;;;;4883730;29;20021;-75
2022/01/30 14:15:20;;;;;;;29.38;5.10;;;;;;;;;;4900537;29;20025;-75
2022/01/30 14:17:46;;;;;;;23.25;3.45;;;;;;;;;;4899243;29;20390;-76
2022/01/30 14:20:12;;;;;;;24.73;4.03;;;;;;;;;;4899706;29;20024;-77
2022/01/30 14:22:38;;;;;;;22.65;3.55;;;;;;;;;;4899014;29;20020;-76
2022/01/30 14:25:06;;;;;;;26.63;4.03;;;;;;;;;;4899658;29;20541;-76
2022/01/30 14:27:35;;;;;;;21.67;3.92;;;;;;;;;;4898234;29;20059;-75
2022/01/30 14:30:04;;;;;;;35.55;5.80;;;;;;;;;;4899030;29;20036;-75
2022/01/30 14:32:34;;;;;;;28.73;4.38;;;;;;;;;;4899512;29;20027;-77
2022/01/30 14:35:00;;;;;;;25.70;3.53;;;;;;;;;;4897934;29;20084;-75
2022/01/30 14:37:25;;;;;;;31.00;3.28;;;;;;;;;;4898761;29;20024;-77
2022/01/30 14:39:54;;;;;;;22.27;3.75;;;;;;;;;;4896954;29;20047;-76
2022/01/30 14:42:20;;;;;;;18.95;3.58;;;;;;;;;;4898052;29;20020;-77
2022/01/30 14:44:45;;;;;;;27.65;4.40;;;;;;;;;;4897427;29;20023;-77
2022/01/30 14:47:10;;;;;;;22.88;4.15;;;;;;;;;;4896946;29;20029;-74
2022/01/30 14:49:36;;;;;;;34.08;4.15;;;;;;;;;;4897380;29;20095;-75
2022/01/30 14:52:03;;;;;;;22.17;4.25;;;;;;;;;;4897906;29;20072;-76
2022/01/30 14:54:28;;;;;;;28.15;3.40;;;;;;;;;;4897093;29;20039;-77
2022/01/30 14:56:53;;;;;;;25.15;3.97;;;;;;;;;;4899560;29;20024;-77
2022/01/30 14:59:19;;;;;;;27.13;3.70;;;;;;;;;;4901851;29;20020;-78
2022/01/30 15:01:44;;;;;;;24.33;4.05;;;;;;;;;;4902914;29;20537;-77
2022/01/30 15:04:09;;;;;;;36.42;4.40;;;;;;;;;;4903002;29;20043;-77
2022/01/30 15:06:34;;;;;;;31.15;3.72;;;;;;;;;;4901483;29;20025;-78
2022/01/30 15:09:01;;;;;;;25.05;5.05;;;;;;;;;;4899815;29;20036;-77
2022/01/30 15:11:26;;;;;;;24.65;3.95;;;;;;;;;;4903311;29;20479;-77
2022/01/30 15:13:51;;;;;;;29.85;3.80;;;;;;;;;;4903901;29;20025;-78
2022/01/30 15:16:23;;;;;;;25.50;3.55;;;;;;;;;;4901587;29;20059;-78
2022/01/30 15:18:49;;;;;;;20.75;3.97;;;;;;;;;;4901231;29;20032;-77
2022/01/30 15:21:15;;;;;;;27.77;4.30;;;;;;;;;;4901562;29;20028;-76
2022/01/30 15:23:41;;;;;;;25.70;5.07;;;;;;;;;;4901472;29;20020;-78
2022/01/30 15:26:07;;;;;;;27.55;4.63;;;;;;;;;;4910292;29;20079;-77
2022/01/30 15:28:32;;;;;;;28.30;4.38;;;;;;;;;;4904649;29;20078;-78
2022/01/30 15:30:58;;;;;;;24.58;4.43;;;;;;;;;;4905166;29;20398;-77
2022/01/30 15:33:23;;;;;;;31.00;5.82;;;;;;;;;;4901899;29;20032;-77